This is the latest recevied weather packets stored in our database for station/object KB4JAC-13. If no packets are shown the sender has not sent any weather packets the latest 10 day(s).
| Time | Temp. | Humidity | Pressure | Rain* | Wind** | Luminosity | Snow |
|---|---|---|---|---|---|---|---|
| 1788027809 | 33.33° C | 58% | 994.3 hPa | 0 mm | - | - | - |
| 1788027207 | 32.78° C | 61% | 994.4 hPa | 0 mm | - | - | - |
| 1788026607 | 32.22° C | 64% | 994.6 hPa | 0 mm | - | - | - |
| 1788026007 | 31.67° C | 68% | 994.5 hPa | 0 mm | - | - | - |
| 1788025406 | 31.67° C | 66% | 994.9 hPa | 0 mm | - | - | - |
| 1788024806 | 31.11° C | 69% | 994.9 hPa | 0 mm | - | - | - |
| 1788024206 | 31.11° C | 66% | 995.2 hPa | 0 mm | - | - | - |
| 1788023605 | 31.67° C | 65% | 995.3 hPa | 0 mm | - | - | - |
| 1788023005 | 31.11° C | 66% | 995.4 hPa | 0 mm | - | - | - |
| 1788022405 | 31.11° C | 68% | 995.5 hPa | 0 mm | - | - | - |
| 1788021805 | 30° C | 71% | 995.7 hPa | 0 mm | - | - | - |
| 1788021204 | 30° C | 71% | 995.5 hPa | 0 mm | - | - | - |
| 1788020603 | 29.44° C | 75% | 995.4 hPa | 0 mm | - | - | - |
| 1788020003 | 30° C | 72% | 995.7 hPa | 0 mm | - | - | - |
| 1788019402 | 29.44° C | 73% | 995.6 hPa | 0 mm | - | - | - |
| 1788018801 | 30° C | 72% | 995.7 hPa | 0 mm | - | - | - |
| 1788018201 | 28.89° C | 74% | 995.7 hPa | 0 mm | - | - | - |
| 1788017600 | 28.89° C | 77% | 995.7 hPa | 0 mm | - | - | - |
| 1788017000 | 28.33° C | 75% | 995.7 hPa | 0 mm | - | - | - |
| 1788016399 | 30° C | 72% | 995.8 hPa | 0 mm | - | - | - |
| 1788015799 | 29.44° C | 73% | 995.7 hPa | 0 mm | - | - | - |
| 1788015198 | 28.33° C | 74% | 995.6 hPa | 0 mm | - | - | - |
| 1788014597 | 27.22° C | 78% | 995.5 hPa | 0 mm | - | - | - |
| 1788013997 | 28.33° C | 75% | 995.5 hPa | 0 mm | - | - | - |
| 1788013397 | 27.22° C | 78% | 995.2 hPa | 0 mm | - | - | - |
* Rain since midnight (hover to see other rain measurements)
** Current wind speed in m/s (hover to see current wind gust speed)